Thunder radar more information blitzortung!


Radar de pluja more information rain snow radar


Visita la nostra xarxa de llocs de meteo:

Template documentation
and downloads

And another site



Wind From: 11-12-2017 11:00 Until: 14:59 warning for: Wind Level: Yellow info button

Pagina Historial Weather Underground text

Diari Resum Juliol 5, 2017 Unitats:  Tant    Imperial   Mètric
« Previous Dia
SegĂźent Dia »
Diari Setmana Mensual Anual Personalitzada
  Maxima: Minima: Media:
Temperatura: 86.4 °F /  30.2 °C 61 °F /  16.1 °C 77 °F /  25 °C
Punt de rosada: 62.8 °F /  17.1 °C 50.7 °F /  10.4 °C 57.6 °F /  14.2 °C
Humitat: 81 % 33 % 53 %
Wind Speed: 13.8 mph /  22.2 km/h - 5.4 mph /  8.7 km/h
RĂ fegues de vent: 13.8 mph /  22.2 km/h - -
Vent:- - ESE
Pression baro: 30.1 in /  1017.8 hPa 29.9 in /  1012.8 hPa -
Precipitacions: 0 in /  0.0 mm    
Historical Graphs
 
 
Dades de taula per Juliol 5, 2017
Temps Temperatura Punt de rosada Pression baro Vent Wind Speed RĂ fegues de vent Humitat Rainfall Rate (Hourly)
00:04 70.7 °F /  21.5 °C 52.7 °F /  11.5 °C 30 in /  1015.8 hPa Calm     53 % 0 in /  0.0 mm
00:05 61.7 °F /  16.5 °C 51.4 °F /  10.8 °C 30 in /  1015.8 hPa Calm     69 % 0 in /  0.0 mm
00:09 70.3 °F /  21.3 °C 52.3 °F /  11.3 °C 30 in /  1015.8 hPa Calm     53 % 0 in /  0.0 mm
00:15 61.9 °F /  16.6 °C 51.6 °F /  10.9 °C 30 in /  1016.8 hPa Calm   1 mph /  1.6 km/h 69 % 0 in /  0.0 mm
00:25 61.9 °F /  16.6 °C 51.6 °F /  10.9 °C 30 in /  1016.8 hPa Calm   1 mph /  1.6 km/h 69 % 0 in /  0.0 mm
00:35 61.7 °F /  16.5 °C 51.4 °F /  10.8 °C 30 in /  1015.8 hPa Calm     69 % 0 in /  0.0 mm
00:45 61.5 °F /  16.4 °C 51.3 °F /  10.7 °C 30 in /  1015.8 hPa Calm     69 % 0 in /  0.0 mm
00:55 61.3 °F /  16.3 °C 51.1 °F /  10.6 °C 30 in /  1015.8 hPa Calm     69 % 0 in /  0.0 mm
01:05 61 °F /  16.1 °C 50.7 °F /  10.4 °C 30 in /  1015.8 hPa Calm     69 % 0 in /  0.0 mm
01:15 61.2 °F /  16.2 °C 51.3 °F /  10.7 °C 30 in /  1015.8 hPa Calm     70 % 0 in /  0.0 mm
01:25 61.2 °F /  16.2 °C 51.3 °F /  10.7 °C 30 in /  1015.8 hPa Calm     70 % 0 in /  0.0 mm
01:35 61.5 °F /  16.4 °C 51.6 °F /  10.9 °C 30 in /  1015.8 hPa Calm   2 mph /  3.2 km/h 70 % 0 in /  0.0 mm
01:45 61.7 °F /  16.5 °C 51.8 °F /  11.0 °C 30 in /  1015.8 hPa Calm   2 mph /  3.2 km/h 70 % 0 in /  0.0 mm
01:55 61.9 °F /  16.6 °C 51.6 °F /  10.9 °C 30 in /  1015.8 hPa Calm     69 % 0 in /  0.0 mm
02:05 62.2 °F /  16.8 °C 52 °F /  11.1 °C 30 in /  1015.8 hPa NE 1 mph /  1.6 km/h 1 mph /  1.6 km/h 69 % 0 in /  0.0 mm
02:15 62.6 °F /  17.0 °C 52 °F /  11.1 °C 30 in /  1015.8 hPa Calm   1 mph /  1.6 km/h 68 % 0 in /  0.0 mm
02:25 63.5 °F /  17.5 °C 52 °F /  11.1 °C 30 in /  1015.8 hPa ENE 2 mph /  3.2 km/h 3 mph /  4.8 km/h 66 % 0 in /  0.0 mm
02:35 62.1 °F /  16.7 °C 51.4 °F /  10.8 °C 30 in /  1015.8 hPa SW 2 mph /  3.2 km/h 3 mph /  4.8 km/h 68 % 0 in /  0.0 mm
02:45 62.2 °F /  16.8 °C 51.4 °F /  10.8 °C 30 in /  1015.8 hPa SW 1 mph /  1.6 km/h 2 mph /  3.2 km/h 68 % 0 in /  0.0 mm
02:55 63.9 °F /  17.7 °C 52.7 °F /  11.5 °C 30 in /  1015.8 hPa Calm   2 mph /  3.2 km/h 67 % 0 in /  0.0 mm
03:05 66.2 °F /  19.0 °C 53.8 °F /  12.1 °C 30 in /  1015.8 hPa South 1 mph /  1.6 km/h 2 mph /  3.2 km/h 64 % 0 in /  0.0 mm
03:15 65.8 °F /  18.8 °C 53.2 °F /  11.8 °C 30 in /  1015.8 hPa Calm   2 mph /  3.2 km/h 64 % 0 in /  0.0 mm
03:25 66.6 °F /  19.2 °C 53.1 °F /  11.7 °C 30 in /  1015.8 hPa SSW 2 mph /  3.2 km/h 2 mph /  3.2 km/h 62 % 0 in /  0.0 mm
03:35 66.2 °F /  19.0 °C 52.3 °F /  11.3 °C 30 in /  1015.8 hPa SW 1 mph /  1.6 km/h 3 mph /  4.8 km/h 61 % 0 in /  0.0 mm
03:45 66.9 °F /  19.4 °C 53.1 °F /  11.7 °C 30 in /  1015.8 hPa SW 2 mph /  3.2 km/h 2 mph /  3.2 km/h 61 % 0 in /  0.0 mm
03:55 68.4 °F /  20.2 °C 53.4 °F /  11.9 °C 30 in /  1015.8 hPa SW 1 mph /  1.6 km/h 2 mph /  3.2 km/h 59 % 0 in /  0.0 mm
04:05 71.2 °F /  21.8 °C 55.2 °F /  12.9 °C 30 in /  1015.8 hPa SW 1 mph /  1.6 km/h 2 mph /  3.2 km/h 57 % 0 in /  0.0 mm
04:15 73.4 °F /  23.0 °C 55.8 °F /  13.2 °C 30 in /  1014.8 hPa WNW 1 mph /  1.6 km/h 2 mph /  3.2 km/h 54 % 0 in /  0.0 mm
04:25 73.2 °F /  22.9 °C 55 °F /  12.8 °C 30 in /  1014.8 hPa NNE 2 mph /  3.2 km/h 2 mph /  3.2 km/h 53 % 0 in /  0.0 mm
04:35 74.8 °F /  23.8 °C 55.9 °F /  13.3 °C 30 in /  1015.8 hPa NNE 1 mph /  1.6 km/h 3 mph /  4.8 km/h 52 % 0 in /  0.0 mm
04:45 75.2 °F /  24.0 °C 55.2 °F /  12.9 °C 30 in /  1015.8 hPa NE 2 mph /  3.2 km/h 3 mph /  4.8 km/h 50 % 0 in /  0.0 mm
04:55 75.9 °F /  24.4 °C 55.9 °F /  13.3 °C 30 in /  1015.8 hPa ENE 1 mph /  1.6 km/h 3 mph /  4.8 km/h 50 % 0 in /  0.0 mm
05:05 76.1 °F /  24.5 °C 55.6 °F /  13.1 °C 30 in /  1014.8 hPa NE 2 mph /  3.2 km/h 3 mph /  4.8 km/h 49 % 0 in /  0.0 mm
05:15 77.7 °F /  25.4 °C 55.9 °F /  13.3 °C 30 in /  1015.8 hPa NE 1 mph /  1.6 km/h 2 mph /  3.2 km/h 47 % 0 in /  0.0 mm
05:25 78.3 °F /  25.7 °C 56.5 °F /  13.6 °C 30 in /  1015.8 hPa NNE 1 mph /  1.6 km/h 2 mph /  3.2 km/h 47 % 0 in /  0.0 mm
05:35 78.4 °F /  25.8 °C 55.2 °F /  12.9 °C 30 in /  1014.8 hPa SE 2 mph /  3.2 km/h 4 mph /  6.4 km/h 45 % 0 in /  0.0 mm
05:45 79.2 °F /  26.2 °C 54.7 °F /  12.6 °C 30 in /  1015.8 hPa SE 1 mph /  1.6 km/h 3 mph /  4.8 km/h 43 % 0 in /  0.0 mm
05:55 79.5 °F /  26.4 °C 55 °F /  12.8 °C 30 in /  1015.8 hPa ESE 3 mph /  4.8 km/h 5 mph /  8.0 km/h 43 % 0 in /  0.0 mm
06:05 81.5 °F /  27.5 °C 55.6 °F /  13.1 °C 30 in /  1014.8 hPa ESE 1 mph /  1.6 km/h 3 mph /  4.8 km/h 41 % 0 in /  0.0 mm
06:15 82.6 °F /  28.1 °C 55.8 °F /  13.2 °C 30 in /  1015.8 hPa SSE 1 mph /  1.6 km/h 3 mph /  4.8 km/h 40 % 0 in /  0.0 mm
11:15 82.6 °F /  28.1 °C 56.5 °F /  13.6 °C 30 in /  1015.8 hPa SE 3.8 mph /  6.1 km/h 3.8 mph /  6.1 km/h 41 % 0 in /  0.0 mm
11:20 81.9 °F /  27.7 °C 55.2 °F /  12.9 °C 30 in /  1015.8 hPa SSE 3.5 mph /  5.6 km/h 3.5 mph /  5.6 km/h 40 % 0 in /  0.0 mm
11:25 82.6 °F /  28.1 °C 55.8 °F /  13.2 °C 30 in /  1014.8 hPa WNW 2.3 mph /  3.7 km/h 2.3 mph /  3.7 km/h 40 % 0 in /  0.0 mm
11:30 82.8 °F /  28.2 °C 55.2 °F /  12.9 °C 30 in /  1014.8 hPa SSE 3.5 mph /  5.6 km/h 3.5 mph /  5.6 km/h 39 % 0 in /  0.0 mm
11:35 82.2 °F /  27.9 °C 54.9 °F /  12.7 °C 30 in /  1014.8 hPa NE 4.6 mph /  7.4 km/h 4.6 mph /  7.4 km/h 39 % 0 in /  0.0 mm
11:40 82.8 °F /  28.2 °C 53.8 °F /  12.1 °C 30 in /  1015.8 hPa East 4.6 mph /  7.4 km/h 4.6 mph /  7.4 km/h 37 % 0 in /  0.0 mm
11:45 82.9 °F /  28.3 °C 54.7 °F /  12.6 °C 30 in /  1015.8 hPa SW 4.6 mph /  7.4 km/h 4.6 mph /  7.4 km/h 38 % 0 in /  0.0 mm
11:50 84 °F /  28.9 °C 54.1 °F /  12.3 °C 30 in /  1015.8 hPa SE 4.6 mph /  7.4 km/h 4.6 mph /  7.4 km/h 36 % 0 in /  0.0 mm
11:55 83.8 °F /  28.8 °C 54.9 °F /  12.7 °C 30 in /  1014.8 hPa ESE 2.3 mph /  3.7 km/h 2.4 mph /  3.9 km/h 37 % 0 in /  0.0 mm
12:00 84.7 °F /  29.3 °C 54.1 °F /  12.3 °C 30 in /  1014.8 hPa ESE 3.5 mph /  5.6 km/h 3.5 mph /  5.6 km/h 35 % 0 in /  0.0 mm
12:05 84.6 °F /  29.2 °C 54 °F /  12.2 °C 30 in /  1014.8 hPa East 4.6 mph /  7.4 km/h 4.6 mph /  7.4 km/h 35 % 0 in /  0.0 mm
12:10 84.2 °F /  29.0 °C 52.9 °F /  11.6 °C 30 in /  1015.8 hPa NNE 5.8 mph /  9.3 km/h 5.8 mph /  9.3 km/h 34 % 0 in /  0.0 mm
12:15 84.6 °F /  29.2 °C 53.1 °F /  11.7 °C 30 in /  1015.8 hPa ESE 5.8 mph /  9.3 km/h 5.8 mph /  9.3 km/h 34 % 0 in /  0.0 mm
12:20 83.8 °F /  28.8 °C 53.2 °F /  11.8 °C 30 in /  1015.8 hPa NE 4.6 mph /  7.4 km/h 4.6 mph /  7.4 km/h 35 % 0 in /  0.0 mm
12:25 83.8 °F /  28.8 °C 52.5 °F /  11.4 °C 30 in /  1016.8 hPa WSW 8.1 mph /  13.0 km/h 8.1 mph /  13.0 km/h 34 % 0 in /  0.0 mm
12:30 84.4 °F /  29.1 °C 52.2 °F /  11.2 °C 30 in /  1016.8 hPa ENE 4.6 mph /  7.4 km/h 4.6 mph /  7.4 km/h 33 % 0 in /  0.0 mm
12:35 85.3 °F /  29.6 °C 53.8 °F /  12.1 °C 30 in /  1016.8 hPa North 2.3 mph /  3.7 km/h 2.3 mph /  3.7 km/h 34 % 0 in /  0.0 mm
12:40 86.4 °F /  30.2 °C 54 °F /  12.2 °C 30 in /  1015.8 hPa ENE 4 mph /  6.4 km/h 4 mph /  6.4 km/h 33 % 0 in /  0.0 mm
12:45 85.6 °F /  29.8 °C 54 °F /  12.2 °C 30 in /  1015.8 hPa ESE 5.8 mph /  9.3 km/h 5.8 mph /  9.3 km/h 34 % 0 in /  0.0 mm
12:50 84.7 °F /  29.3 °C 54.9 °F /  12.7 °C 30 in /  1015.8 hPa NE 8.1 mph /  13.0 km/h 8.1 mph /  13.0 km/h 36 % 0 in /  0.0 mm
12:55 84.7 °F /  29.3 °C 56.3 °F /  13.5 °C 30 in /  1015.8 hPa ENE 11.5 mph /  18.5 km/h 11.5 mph /  18.5 km/h 38 % 0 in /  0.0 mm
13:00 84.2 °F /  29.0 °C 56.7 °F /  13.7 °C 30 in /  1015.8 hPa ENE 6.9 mph /  11.1 km/h 6.9 mph /  11.1 km/h 39 % 0 in /  0.0 mm
13:01 84.4 °F /  29.1 °C 56.7 °F /  13.7 °C 30 in /  1015.8 hPa ESE 6.9 mph /  11.1 km/h 6.9 mph /  11.1 km/h 39 % 0 in /  0.0 mm
13:06 83.8 °F /  28.8 °C 57.6 °F /  14.2 °C 30 in /  1015.8 hPa ENE 8.1 mph /  13.0 km/h 8.1 mph /  13.0 km/h 41 % 0 in /  0.0 mm
13:11 84 °F /  28.9 °C 57.7 °F /  14.3 °C 30 in /  1015.8 hPa SSE 12.3 mph /  19.8 km/h 12.3 mph /  19.8 km/h 41 % 0 in /  0.0 mm
13:16 83.3 °F /  28.5 °C 57.7 °F /  14.3 °C 30 in /  1015.8 hPa NNE 6.9 mph /  11.1 km/h 6.9 mph /  11.1 km/h 42 % 0 in /  0.0 mm
13:21 83.7 °F /  28.7 °C 58.8 °F /  14.9 °C 30 in /  1015.8 hPa ESE 10.4 mph /  16.7 km/h 10.4 mph /  16.7 km/h 43 % 0 in /  0.0 mm
13:26 84.6 °F /  29.2 °C 58.8 °F /  14.9 °C 30 in /  1014.8 hPa East 7.8 mph /  12.6 km/h 7.8 mph /  12.6 km/h 42 % 0 in /  0.0 mm
13:31 84 °F /  28.9 °C 59.2 °F /  15.1 °C 30 in /  1014.8 hPa ESE 10.4 mph /  16.7 km/h 10.4 mph /  16.7 km/h 43 % 0 in /  0.0 mm
13:36 84 °F /  28.9 °C 59.2 °F /  15.1 °C 30 in /  1014.8 hPa ENE 8.1 mph /  13.0 km/h 8.1 mph /  13.0 km/h 43 % 0 in /  0.0 mm
13:41 83.8 °F /  28.8 °C 59 °F /  15.0 °C 30 in /  1014.8 hPa East 8.1 mph /  13.0 km/h 8.1 mph /  13.0 km/h 43 % 0 in /  0.0 mm
13:46 83.7 °F /  28.7 °C 58.8 °F /  14.9 °C 30 in /  1014.8 hPa NE 8.1 mph /  13.0 km/h 8.1 mph /  13.0 km/h 43 % 0 in /  0.0 mm
13:51 84.2 °F /  29.0 °C 58.6 °F /  14.8 °C 30 in /  1014.8 hPa ESE 5.8 mph /  9.3 km/h 5.8 mph /  9.3 km/h 42 % 0 in /  0.0 mm
13:56 83.8 °F /  28.8 °C 59 °F /  15.0 °C 30 in /  1014.8 hPa SE 8.1 mph /  13.0 km/h 8.1 mph /  13.0 km/h 43 % 0 in /  0.0 mm
14:01 84.2 °F /  29.0 °C 59.4 °F /  15.2 °C 30 in /  1014.8 hPa ENE 10.4 mph /  16.7 km/h 10.4 mph /  16.7 km/h 43 % 0 in /  0.0 mm
14:06 83.8 °F /  28.8 °C 59.5 °F /  15.3 °C 30 in /  1014.8 hPa ESE 8.5 mph /  13.7 km/h 8.5 mph /  13.7 km/h 44 % 0 in /  0.0 mm
14:11 83.5 °F /  28.6 °C 59.4 °F /  15.2 °C 30 in /  1014.8 hPa ESE 10.4 mph /  16.7 km/h 10.4 mph /  16.7 km/h 44 % 0 in /  0.0 mm
14:16 83.8 °F /  28.8 °C 59 °F /  15.0 °C 30 in /  1014.8 hPa ESE 10.4 mph /  16.7 km/h 10.4 mph /  16.7 km/h 43 % 0 in /  0.0 mm
14:21 84.2 °F /  29.0 °C 58.6 °F /  14.8 °C 30 in /  1014.8 hPa ESE 10.4 mph /  16.7 km/h 10.4 mph /  16.7 km/h 42 % 0 in /  0.0 mm
14:26 83.8 °F /  28.8 °C 59 °F /  15.0 °C 30 in /  1014.8 hPa ESE 8.1 mph /  13.0 km/h 8.1 mph /  13.0 km/h 43 % 0 in /  0.0 mm
14:31 84.2 °F /  29.0 °C 58.6 °F /  14.8 °C 30 in /  1014.8 hPa East 11.5 mph /  18.5 km/h 11.5 mph /  18.5 km/h 42 % 0 in /  0.0 mm
14:36 84.6 °F /  29.2 °C 58.8 °F /  14.9 °C 30 in /  1014.8 hPa East 13.8 mph /  22.2 km/h 13.8 mph /  22.2 km/h 42 % 0 in /  0.0 mm
14:41 84 °F /  28.9 °C 59.2 °F /  15.1 °C 30 in /  1014.8 hPa ESE 12.7 mph /  20.4 km/h 12.7 mph /  20.4 km/h 43 % 0 in /  0.0 mm
14:46 84.2 °F /  29.0 °C 58.6 °F /  14.8 °C 30 in /  1014.8 hPa ESE 6.9 mph /  11.1 km/h 6.9 mph /  11.1 km/h 42 % 0 in /  0.0 mm
14:51 84.7 °F /  29.3 °C 59.2 °F /  15.1 °C 30 in /  1014.8 hPa SE 10.7 mph /  17.2 km/h 10.7 mph /  17.2 km/h 42 % 0 in /  0.0 mm
14:56 84 °F /  28.9 °C 59.2 °F /  15.1 °C 30 in /  1014.8 hPa East 10.4 mph /  16.7 km/h 10.4 mph /  16.7 km/h 43 % 0 in /  0.0 mm
15:01 84.4 °F /  29.1 °C 58.8 °F /  14.9 °C 30 in /  1014.8 hPa ESE 9.2 mph /  14.8 km/h 9.2 mph /  14.8 km/h 42 % 0 in /  0.0 mm
15:06 83.8 °F /  28.8 °C 59 °F /  15.0 °C 30 in /  1014.8 hPa East 12.7 mph /  20.4 km/h 12.7 mph /  20.4 km/h 43 % 0 in /  0.0 mm
15:11 84.2 °F /  29.0 °C 58.6 °F /  14.8 °C 30 in /  1014.8 hPa ENE 10.4 mph /  16.7 km/h 10.4 mph /  16.7 km/h 42 % 0 in /  0.0 mm
15:16 84.2 °F /  29.0 °C 58.6 °F /  14.8 °C 30 in /  1014.8 hPa ENE 5.4 mph /  8.7 km/h 5.4 mph /  8.7 km/h 42 % 0 in /  0.0 mm
15:21 84.7 °F /  29.3 °C 59.2 °F /  15.1 °C 30 in /  1014.8 hPa ESE 12.7 mph /  20.4 km/h 12.7 mph /  20.4 km/h 42 % 0 in /  0.0 mm
15:26 84 °F /  28.9 °C 59.2 °F /  15.1 °C 30 in /  1014.8 hPa ESE 11.5 mph /  18.5 km/h 11.5 mph /  18.5 km/h 43 % 0 in /  0.0 mm
15:31 83.8 °F /  28.8 °C 59 °F /  15.0 °C 30 in /  1014.8 hPa ESE 10 mph /  16.1 km/h 10 mph /  16.1 km/h 43 % 0 in /  0.0 mm
15:36 84 °F /  28.9 °C 59.2 °F /  15.1 °C 30 in /  1014.8 hPa ESE 8.1 mph /  13.0 km/h 8.1 mph /  13.0 km/h 43 % 0 in /  0.0 mm
15:41 84.6 °F /  29.2 °C 58.3 °F /  14.6 °C 30 in /  1014.8 hPa ESE 8.7 mph /  14.0 km/h 8.7 mph /  14.0 km/h 41 % 0 in /  0.0 mm
15:46 83.7 °F /  28.7 °C 58.1 °F /  14.5 °C 30 in /  1014.8 hPa South 10.4 mph /  16.7 km/h 10.4 mph /  16.7 km/h 42 % 0 in /  0.0 mm
15:51 84.6 °F /  29.2 °C 58.3 °F /  14.6 °C 30 in /  1014.8 hPa ESE 7.6 mph /  12.2 km/h 7.6 mph /  12.2 km/h 41 % 0 in /  0.0 mm
15:57 84.2 °F /  29.0 °C 57.9 °F /  14.4 °C 30 in /  1014.8 hPa ESE 10.4 mph /  16.7 km/h 10.4 mph /  16.7 km/h 41 % 0 in /  0.0 mm
16:02 84.4 °F /  29.1 °C 58.1 °F /  14.5 °C 30 in /  1014.8 hPa ENE 8.1 mph /  13.0 km/h 8.1 mph /  13.0 km/h 41 % 0 in /  0.0 mm
16:07 84.6 °F /  29.2 °C 57.6 °F /  14.2 °C 30 in /  1014.8 hPa NE 10.2 mph /  16.4 km/h 10.2 mph /  16.4 km/h 40 % 0 in /  0.0 mm
16:12 83.8 °F /  28.8 °C 57.6 °F /  14.2 °C 30 in /  1014.8 hPa ESE 9.2 mph /  14.8 km/h 9.2 mph /  14.8 km/h 41 % 0 in /  0.0 mm
16:17 84.4 °F /  29.1 °C 57.4 °F /  14.1 °C 30 in /  1014.8 hPa ESE 9.2 mph /  14.8 km/h 9.2 mph /  14.8 km/h 40 % 0 in /  0.0 mm
16:22 84.6 °F /  29.2 °C 56.8 °F /  13.8 °C 30 in /  1014.8 hPa East 5.8 mph /  9.3 km/h 5.8 mph /  9.3 km/h 39 % 0 in /  0.0 mm
16:27 83.7 °F /  28.7 °C 56.8 °F /  13.8 °C 30 in /  1014.8 hPa ESE 5.8 mph /  9.3 km/h 5.8 mph /  9.3 km/h 40 % 0 in /  0.0 mm
16:32 84.2 °F /  29.0 °C 55.8 °F /  13.2 °C 30 in /  1014.8 hPa ESE 11.5 mph /  18.5 km/h 11.5 mph /  18.5 km/h 38 % 0 in /  0.0 mm
16:37 84.2 °F /  29.0 °C 55.8 °F /  13.2 °C 30 in /  1014.8 hPa ESE 8.1 mph /  13.0 km/h 8.1 mph /  13.0 km/h 38 % 0 in /  0.0 mm
16:42 84.6 °F /  29.2 °C 56.1 °F /  13.4 °C 30 in /  1014.8 hPa ESE 5.4 mph /  8.7 km/h 5.4 mph /  8.7 km/h 38 % 0 in /  0.0 mm
16:47 84.4 °F /  29.1 °C 55.9 °F /  13.3 °C 30 in /  1014.8 hPa SSE 10.4 mph /  16.7 km/h 10.4 mph /  16.7 km/h 38 % 0 in /  0.0 mm
16:52 84.2 °F /  29.0 °C 55.8 °F /  13.2 °C 30 in /  1014.8 hPa South 11.5 mph /  18.5 km/h 11.5 mph /  18.5 km/h 38 % 0 in /  0.0 mm
16:57 84.6 °F /  29.2 °C 56.1 °F /  13.4 °C 30 in /  1014.8 hPa NNE 6.9 mph /  11.1 km/h 6.9 mph /  11.1 km/h 38 % 0 in /  0.0 mm
17:02 84.2 °F /  29.0 °C 55.8 °F /  13.2 °C 30 in /  1014.8 hPa ESE 9.2 mph /  14.8 km/h 9.2 mph /  14.8 km/h 38 % 0 in /  0.0 mm
17:07 84.2 °F /  29.0 °C 55.8 °F /  13.2 °C 30 in /  1014.8 hPa SE 5.8 mph /  9.3 km/h 6 mph /  9.7 km/h 38 % 0 in /  0.0 mm
17:12 84 °F /  28.9 °C 56.5 °F /  13.6 °C 30 in /  1014.8 hPa SE 5.8 mph /  9.3 km/h 5.8 mph /  9.3 km/h 39 % 0 in /  0.0 mm
17:17 84 °F /  28.9 °C 56.5 °F /  13.6 °C 30 in /  1014.8 hPa East 6.9 mph /  11.1 km/h 6.9 mph /  11.1 km/h 39 % 0 in /  0.0 mm
17:22 84.2 °F /  29.0 °C 55.8 °F /  13.2 °C 30 in /  1014.8 hPa ENE 8.5 mph /  13.7 km/h 8.5 mph /  13.7 km/h 38 % 0 in /  0.0 mm
17:23 83.8 °F /  28.8 °C 56.1 °F /  13.4 °C 30 in /  1014.8 hPa ESE 8.1 mph /  13.0 km/h 8.1 mph /  13.0 km/h 39 % 0 in /  0.0 mm
17:28 83.1 °F /  28.4 °C 55.6 °F /  13.1 °C 29.9 in /  1013.8 hPa ESE 12.7 mph /  20.4 km/h 12.7 mph /  20.4 km/h 39 % 0 in /  0.0 mm
17:33 83.1 °F /  28.4 °C 55.6 °F /  13.1 °C 29.9 in /  1013.8 hPa ESE 9.2 mph /  14.8 km/h 9.2 mph /  14.8 km/h 39 % 0 in /  0.0 mm
17:38 83.8 °F /  28.8 °C 56.1 °F /  13.4 °C 29.9 in /  1013.8 hPa ESE 6.9 mph /  11.1 km/h 6.9 mph /  11.1 km/h 39 % 0 in /  0.0 mm
17:43 83.7 °F /  28.7 °C 56.1 °F /  13.4 °C 29.9 in /  1013.8 hPa ESE 11.5 mph /  18.5 km/h 11.5 mph /  18.5 km/h 39 % 0 in /  0.0 mm
17:44 83.3 °F /  28.5 °C 55.8 °F /  13.2 °C 29.9 in /  1013.8 hPa ESE 11.8 mph /  19.0 km/h 11.8 mph /  19.0 km/h 39 % 0 in /  0.0 mm
17:49 82.6 °F /  28.1 °C 55.8 °F /  13.2 °C 29.9 in /  1013.8 hPa ESE 10.5 mph /  16.9 km/h 10.5 mph /  16.9 km/h 40 % 0 in /  0.0 mm
17:54 82.8 °F /  28.2 °C 56.7 °F /  13.7 °C 29.9 in /  1013.8 hPa ESE 8.5 mph /  13.7 km/h 8.5 mph /  13.7 km/h 41 % 0 in /  0.0 mm
17:59 82.9 °F /  28.3 °C 56.8 °F /  13.8 °C 29.9 in /  1013.8 hPa East 8.1 mph /  13.0 km/h 8.1 mph /  13.0 km/h 41 % 0 in /  0.0 mm
18:04 82.4 °F /  28.0 °C 56.3 °F /  13.5 °C 29.9 in /  1013.8 hPa ESE 10.4 mph /  16.7 km/h 10.4 mph /  16.7 km/h 41 % 0 in /  0.0 mm
18:09 82.6 °F /  28.1 °C 56.5 °F /  13.6 °C 29.9 in /  1013.8 hPa ENE 8.1 mph /  13.0 km/h 8.1 mph /  13.0 km/h 41 % 0 in /  0.0 mm
18:14 82.9 °F /  28.3 °C 57.6 °F /  14.2 °C 29.9 in /  1013.8 hPa SSE 8.1 mph /  13.0 km/h 8.1 mph /  13.0 km/h 42 % 0 in /  0.0 mm
18:19 82.2 °F /  27.9 °C 56.8 °F /  13.8 °C 29.9 in /  1013.8 hPa East 12.7 mph /  20.4 km/h 12.7 mph /  20.4 km/h 42 % 0 in /  0.0 mm
18:24 81.7 °F /  27.6 °C 55.8 °F /  13.2 °C 29.9 in /  1013.8 hPa SE 11.5 mph /  18.5 km/h 11.5 mph /  18.5 km/h 41 % 0 in /  0.0 mm
18:29 81.9 °F /  27.7 °C 57.2 °F /  14.0 °C 29.9 in /  1013.8 hPa ESE 9.2 mph /  14.8 km/h 9.2 mph /  14.8 km/h 43 % 0 in /  0.0 mm
18:34 81.9 °F /  27.7 °C 56.5 °F /  13.6 °C 29.9 in /  1013.8 hPa ESE 10.4 mph /  16.7 km/h 10.4 mph /  16.7 km/h 42 % 0 in /  0.0 mm
18:35 81.9 °F /  27.7 °C 56.5 °F /  13.6 °C 29.9 in /  1013.8 hPa NNE 10.4 mph /  16.7 km/h 10.4 mph /  16.7 km/h 42 % 0 in /  0.0 mm
18:40 81.3 °F /  27.4 °C 56.7 °F /  13.7 °C 29.9 in /  1013.8 hPa ESE 6.9 mph /  11.1 km/h 6.9 mph /  11.1 km/h 43 % 0 in /  0.0 mm
18:45 81.7 °F /  27.6 °C 57.6 °F /  14.2 °C 29.9 in /  1013.8 hPa ESE 5.8 mph /  9.3 km/h 5.9 mph /  9.5 km/h 44 % 0 in /  0.0 mm
18:50 81.3 °F /  27.4 °C 57.4 °F /  14.1 °C 29.9 in /  1013.8 hPa East 6.9 mph /  11.1 km/h 6.9 mph /  11.1 km/h 44 % 0 in /  0.0 mm
18:55 81.3 °F /  27.4 °C 57.4 °F /  14.1 °C 29.9 in /  1013.8 hPa ESE 8.1 mph /  13.0 km/h 8.1 mph /  13.0 km/h 44 % 0 in /  0.0 mm
19:00 80.8 °F /  27.1 °C 56.8 °F /  13.8 °C 29.9 in /  1013.8 hPa ESE 8.1 mph /  13.0 km/h 8.1 mph /  13.0 km/h 44 % 0 in /  0.0 mm
19:05 80.8 °F /  27.1 °C 57.6 °F /  14.2 °C 29.9 in /  1013.8 hPa ESE 9.2 mph /  14.8 km/h 9.2 mph /  14.8 km/h 45 % 0 in /  0.0 mm
19:10 80.6 °F /  27.0 °C 57.4 °F /  14.1 °C 29.9 in /  1012.8 hPa ESE 8.1 mph /  13.0 km/h 8.1 mph /  13.0 km/h 45 % 0 in /  0.0 mm
19:15 80.6 °F /  27.0 °C 57.4 °F /  14.1 °C 29.9 in /  1012.8 hPa ESE 8.1 mph /  13.0 km/h 8.1 mph /  13.0 km/h 45 % 0 in /  0.0 mm
19:20 80.6 °F /  27.0 °C 57.9 °F /  14.4 °C 29.9 in /  1012.8 hPa ESE 5.8 mph /  9.3 km/h 5.8 mph /  9.3 km/h 46 % 0 in /  0.0 mm
19:25 80.2 °F /  26.8 °C 58.3 °F /  14.6 °C 29.9 in /  1013.8 hPa ESE 6.9 mph /  11.1 km/h 6.9 mph /  11.1 km/h 47 % 0 in /  0.0 mm
19:30 80.1 °F /  26.7 °C 58.6 °F /  14.8 °C 29.9 in /  1013.8 hPa East 8.1 mph /  13.0 km/h 8.1 mph /  13.0 km/h 48 % 0 in /  0.0 mm
19:35 79.9 °F /  26.6 °C 58.5 °F /  14.7 °C 29.9 in /  1013.8 hPa ESE 10.7 mph /  17.2 km/h 10.7 mph /  17.2 km/h 48 % 0 in /  0.0 mm
19:40 79.7 °F /  26.5 °C 58.8 °F /  14.9 °C 29.9 in /  1013.8 hPa ENE 8.1 mph /  13.0 km/h 8.1 mph /  13.0 km/h 49 % 0 in /  0.0 mm
19:45 79.3 °F /  26.3 °C 58.5 °F /  14.7 °C 29.9 in /  1013.8 hPa ESE 8.1 mph /  13.0 km/h 8.1 mph /  13.0 km/h 49 % 0 in /  0.0 mm
19:50 79.2 °F /  26.2 °C 58.8 °F /  14.9 °C 29.9 in /  1013.8 hPa ESE 10.4 mph /  16.7 km/h 10.4 mph /  16.7 km/h 50 % 0 in /  0.0 mm
19:55 78.8 °F /  26.0 °C 58.6 °F /  14.8 °C 29.9 in /  1013.8 hPa ENE 6.9 mph /  11.1 km/h 6.9 mph /  11.1 km/h 50 % 0 in /  0.0 mm
20:00 79 °F /  26.1 °C 59.4 °F /  15.2 °C 29.9 in /  1013.8 hPa ESE 8.1 mph /  13.0 km/h 8.1 mph /  13.0 km/h 51 % 0 in /  0.0 mm
20:05 78.6 °F /  25.9 °C 59 °F /  15.0 °C 29.9 in /  1013.8 hPa ENE 9.2 mph /  14.8 km/h 9.2 mph /  14.8 km/h 51 % 0 in /  0.0 mm
20:10 78.4 °F /  25.8 °C 59.4 °F /  15.2 °C 29.9 in /  1013.8 hPa ESE 7.4 mph /  11.9 km/h 7.4 mph /  11.9 km/h 52 % 0 in /  0.0 mm
20:15 78.1 °F /  25.6 °C 59.5 °F /  15.3 °C 29.9 in /  1013.8 hPa ESE 9.2 mph /  14.8 km/h 9.2 mph /  14.8 km/h 53 % 0 in /  0.0 mm
20:16 78.1 °F /  25.6 °C 59.5 °F /  15.3 °C 29.9 in /  1013.8 hPa East 9.2 mph /  14.8 km/h 9.2 mph /  14.8 km/h 53 % 0 in /  0.0 mm
20:21 77.9 °F /  25.5 °C 59.9 °F /  15.5 °C 29.9 in /  1013.8 hPa East 8.1 mph /  13.0 km/h 8.1 mph /  13.0 km/h 54 % 0 in /  0.0 mm
20:25 69.3 °F /  20.7 °C 61.3 °F /  16.3 °C 30 in /  1016.8 hPa NW 2 mph /  3.2 km/h 2 mph /  3.2 km/h 76 % 0 in /  0.0 mm
20:26 77.9 °F /  25.5 °C 59.9 °F /  15.5 °C 30 in /  1014.8 hPa ENE 5.8 mph /  9.3 km/h 5.8 mph /  9.3 km/h 54 % 0 in /  0.0 mm
20:31 77.7 °F /  25.4 °C 59.7 °F /  15.4 °C 30 in /  1014.8 hPa ENE 6.9 mph /  11.1 km/h 6.9 mph /  11.1 km/h 54 % 0 in /  0.0 mm
20:35 69.3 °F /  20.7 °C 61.7 °F /  16.5 °C 30.1 in /  1017.8 hPa WNW 1 mph /  1.6 km/h 2 mph /  3.2 km/h 77 % 0 in /  0.0 mm
20:36 77.5 °F /  25.3 °C 60.1 °F /  15.6 °C 30 in /  1014.8 hPa East 8.1 mph /  13.0 km/h 8.1 mph /  13.0 km/h 55 % 0 in /  0.0 mm
20:41 77.2 °F /  25.1 °C 59.7 °F /  15.4 °C 30 in /  1014.8 hPa ESE 5.8 mph /  9.3 km/h 5.9 mph /  9.5 km/h 55 % 0 in /  0.0 mm
20:45 69.1 °F /  20.6 °C 61.9 °F /  16.6 °C 30.1 in /  1017.8 hPa Calm   1 mph /  1.6 km/h 78 % 0 in /  0.0 mm
20:46 77 °F /  25.0 °C 60.1 °F /  15.6 °C 30 in /  1014.8 hPa ESE 5.4 mph /  8.7 km/h 5.4 mph /  8.7 km/h 56 % 0 in /  0.0 mm
20:51 76.6 °F /  24.8 °C 60.8 °F /  16.0 °C 30 in /  1014.8 hPa ENE 8.1 mph /  13.0 km/h 8.1 mph /  13.0 km/h 58 % 0 in /  0.0 mm
20:55 69.1 °F /  20.6 °C 61.9 °F /  16.6 °C 30.1 in /  1017.8 hPa Calm   2 mph /  3.2 km/h 78 % 0 in /  0.0 mm
20:56 76.3 °F /  24.6 °C 61 °F /  16.1 °C 30 in /  1014.8 hPa SE 8.1 mph /  13.0 km/h 8.1 mph /  13.0 km/h 59 % 0 in /  0.0 mm
21:01 75.9 °F /  24.4 °C 61 °F /  16.1 °C 30 in /  1014.8 hPa ESE 9.2 mph /  14.8 km/h 9.2 mph /  14.8 km/h 60 % 0 in /  0.0 mm
21:05 69.1 °F /  20.6 °C 61.9 °F /  16.6 °C 30 in /  1016.8 hPa Calm   1 mph /  1.6 km/h 78 % 0 in /  0.0 mm
21:06 75.7 °F /  24.3 °C 61.3 °F /  16.3 °C 30 in /  1014.8 hPa ESE 6.9 mph /  11.1 km/h 6.9 mph /  11.1 km/h 61 % 0 in /  0.0 mm
21:11 75.6 °F /  24.2 °C 61.5 °F /  16.4 °C 30 in /  1014.8 hPa ESE 6.9 mph /  11.1 km/h 6.9 mph /  11.1 km/h 62 % 0 in /  0.0 mm
21:15 69.1 °F /  20.6 °C 62.2 °F /  16.8 °C 30.1 in /  1017.8 hPa NNE 1 mph /  1.6 km/h 2 mph /  3.2 km/h 79 % 0 in /  0.0 mm
21:16 75.2 °F /  24.0 °C 61.3 °F /  16.3 °C 30 in /  1014.8 hPa ENE 5.8 mph /  9.3 km/h 5.8 mph /  9.3 km/h 62 % 0 in /  0.0 mm
21:21 74.8 °F /  23.8 °C 61.3 °F /  16.3 °C 30 in /  1014.8 hPa ENE 6.9 mph /  11.1 km/h 6.9 mph /  11.1 km/h 63 % 0 in /  0.0 mm
21:25 68.9 °F /  20.5 °C 61.9 °F /  16.6 °C 30.1 in /  1017.8 hPa Calm   2 mph /  3.2 km/h 78 % 0 in /  0.0 mm
21:26 74.7 °F /  23.7 °C 61.7 °F /  16.5 °C 30 in /  1014.8 hPa ESE 6.9 mph /  11.1 km/h 6.9 mph /  11.1 km/h 64 % 0 in /  0.0 mm
21:31 74.5 °F /  23.6 °C 61.2 °F /  16.2 °C 30 in /  1014.8 hPa ENE 5.8 mph /  9.3 km/h 5.8 mph /  9.3 km/h 63 % 0 in /  0.0 mm
21:35 68 °F /  20.0 °C 61 °F /  16.1 °C 30 in /  1016.8 hPa Calm   1 mph /  1.6 km/h 78 % 0 in /  0.0 mm
21:36 74.3 °F /  23.5 °C 61.3 °F /  16.3 °C 30 in /  1014.8 hPa ENE 5.8 mph /  9.3 km/h 5.8 mph /  9.3 km/h 64 % 0 in /  0.0 mm
21:41 73.9 °F /  23.3 °C 61 °F /  16.1 °C 30 in /  1014.8 hPa East 4.6 mph /  7.4 km/h 4.6 mph /  7.4 km/h 64 % 0 in /  0.0 mm
21:45 67.8 °F /  19.9 °C 61.2 °F /  16.2 °C 30 in /  1016.8 hPa Calm   1 mph /  1.6 km/h 79 % 0 in /  0.0 mm
21:46 73.8 °F /  23.2 °C 61.3 °F /  16.3 °C 30 in /  1014.8 hPa NNE 5.8 mph /  9.3 km/h 5.8 mph /  9.3 km/h 65 % 0 in /  0.0 mm
21:51 73.6 °F /  23.1 °C 61.2 °F /  16.2 °C 30 in /  1014.8 hPa East 2.3 mph /  3.7 km/h 2.3 mph /  3.7 km/h 65 % 0 in /  0.0 mm
21:55 67.8 °F /  19.9 °C 61.3 °F /  16.3 °C 30 in /  1016.8 hPa SE 1 mph /  1.6 km/h 2 mph /  3.2 km/h 80 % 0 in /  0.0 mm
21:56 73.6 °F /  23.1 °C 61.9 °F /  16.6 °C 30 in /  1014.8 hPa ESE 5.8 mph /  9.3 km/h 5.8 mph /  9.3 km/h 67 % 0 in /  0.0 mm
22:01 73.4 °F /  23.0 °C 61.9 °F /  16.6 °C 30 in /  1014.8 hPa NE 6.9 mph /  11.1 km/h 6.9 mph /  11.1 km/h 67 % 0 in /  0.0 mm
22:05 67.6 °F /  19.8 °C 61.2 °F /  16.2 °C 30 in /  1015.8 hPa ENE 1 mph /  1.6 km/h 2 mph /  3.2 km/h 80 % 0 in /  0.0 mm
22:06 73.4 °F /  23.0 °C 62.2 °F /  16.8 °C 30 in /  1014.8 hPa East 5.8 mph /  9.3 km/h 5.8 mph /  9.3 km/h 68 % 0 in /  0.0 mm
22:11 73.2 °F /  22.9 °C 62.1 °F /  16.7 °C 30 in /  1015.8 hPa ESE 5.8 mph /  9.3 km/h 5.8 mph /  9.3 km/h 68 % 0 in /  0.0 mm
22:15 67.5 °F /  19.7 °C 60.6 °F /  15.9 °C 30 in /  1015.8 hPa NE 2 mph /  3.2 km/h 2 mph /  3.2 km/h 79 % 0 in /  0.0 mm
22:16 73 °F /  22.8 °C 61.9 °F /  16.6 °C 30 in /  1015.8 hPa East 5.8 mph /  9.3 km/h 5.8 mph /  9.3 km/h 68 % 0 in /  0.0 mm
22:21 72.9 °F /  22.7 °C 61.7 °F /  16.5 °C 30 in /  1015.8 hPa ESE 3.5 mph /  5.6 km/h 3.5 mph /  5.6 km/h 68 % 0 in /  0.0 mm
22:25 67.1 °F /  19.5 °C 60.4 °F /  15.8 °C 30 in /  1015.8 hPa NNW 1 mph /  1.6 km/h 2 mph /  3.2 km/h 79 % 0 in /  0.0 mm
22:26 72.7 °F /  22.6 °C 61.5 °F /  16.4 °C 30 in /  1015.8 hPa ESE 3.1 mph /  5.0 km/h 3.1 mph /  5.0 km/h 68 % 0 in /  0.0 mm
22:31 72.5 °F /  22.5 °C 61.7 °F /  16.5 °C 30 in /  1015.8 hPa ENE 3.5 mph /  5.6 km/h 3.5 mph /  5.6 km/h 69 % 0 in /  0.0 mm
22:35 67.1 °F /  19.5 °C 60.1 °F /  15.6 °C 30 in /  1016.8 hPa WNW 1 mph /  1.6 km/h 1 mph /  1.6 km/h 78 % 0 in /  0.0 mm
22:36 72.7 °F /  22.6 °C 62.2 °F /  16.8 °C 30 in /  1015.8 hPa East 6.9 mph /  11.1 km/h 6.9 mph /  11.1 km/h 70 % 0 in /  0.0 mm
22:41 72.5 °F /  22.5 °C 61.7 °F /  16.5 °C 30 in /  1014.8 hPa ENE 3.5 mph /  5.6 km/h 3.5 mph /  5.6 km/h 69 % 0 in /  0.0 mm
22:45 67.5 °F /  19.7 °C 60.4 °F /  15.8 °C 30 in /  1015.8 hPa North 1 mph /  1.6 km/h 2 mph /  3.2 km/h 78 % 0 in /  0.0 mm
22:46 72.3 °F /  22.4 °C 61.5 °F /  16.4 °C 30 in /  1014.8 hPa ENE 3.5 mph /  5.6 km/h 3.5 mph /  5.6 km/h 69 % 0 in /  0.0 mm
22:51 72.1 °F /  22.3 °C 61.9 °F /  16.6 °C 30 in /  1014.8 hPa NE 2.3 mph /  3.7 km/h 2.3 mph /  3.7 km/h 70 % 0 in /  0.0 mm
22:55 66.6 °F /  19.2 °C 59.2 °F /  15.1 °C 30 in /  1015.8 hPa WSW 3 mph /  4.8 km/h 3 mph /  4.8 km/h 77 % 0 in /  0.0 mm
22:56 72 °F /  22.2 °C 61.2 °F /  16.2 °C 30 in /  1014.8 hPa NNE 2.3 mph /  3.7 km/h 2.3 mph /  3.7 km/h 69 % 0 in /  0.0 mm
23:01 72 °F /  22.2 °C 61.5 °F /  16.4 °C 30 in /  1014.8 hPa East 2.3 mph /  3.7 km/h 2.4 mph /  3.9 km/h 70 % 0 in /  0.0 mm
23:05 66.4 °F /  19.1 °C 59.4 °F /  15.2 °C 30 in /  1015.8 hPa WSW 1 mph /  1.6 km/h 4 mph /  6.4 km/h 78 % 0 in /  0.0 mm
23:06 71.8 °F /  22.1 °C 61.5 °F /  16.4 °C 30 in /  1014.8 hPa NE 3.5 mph /  5.6 km/h 3.5 mph /  5.6 km/h 70 % 0 in /  0.0 mm
23:11 71.6 °F /  22.0 °C 61.3 °F /  16.3 °C 30 in /  1015.8 hPa East 2.3 mph /  3.7 km/h 2.3 mph /  3.7 km/h 70 % 0 in /  0.0 mm
23:15 66.6 °F /  19.2 °C 59.7 °F /  15.4 °C 30 in /  1015.8 hPa WSW 1 mph /  1.6 km/h 2 mph /  3.2 km/h 79 % 0 in /  0.0 mm
23:16 71.6 °F /  22.0 °C 61.7 °F /  16.5 °C 30 in /  1015.8 hPa East 2.3 mph /  3.7 km/h 2.3 mph /  3.7 km/h 71 % 0 in /  0.0 mm
23:21 71.4 °F /  21.9 °C 62.2 °F /  16.8 °C 30 in /  1015.8 hPa East 3.1 mph /  5.0 km/h 3.1 mph /  5.0 km/h 73 % 0 in /  0.0 mm
23:25 66 °F /  18.9 °C 59.4 °F /  15.2 °C 30 in /  1015.8 hPa WSW 1 mph /  1.6 km/h 2 mph /  3.2 km/h 79 % 0 in /  0.0 mm
23:26 71.4 °F /  21.9 °C 62.8 °F /  17.1 °C 30 in /  1015.8 hPa East 3.6 mph /  5.8 km/h 3.6 mph /  5.8 km/h 74 % 0 in /  0.0 mm
23:31 71.2 °F /  21.8 °C 62.4 °F /  16.9 °C 30 in /  1015.8 hPa ENE 3.5 mph /  5.6 km/h 3.5 mph /  5.6 km/h 74 % 0 in /  0.0 mm
23:35 66 °F /  18.9 °C 60.1 °F /  15.6 °C 30 in /  1015.8 hPa Calm   1 mph /  1.6 km/h 81 % 0 in /  0.0 mm
23:36 71.1 °F /  21.7 °C 62.4 °F /  16.9 °C 30 in /  1015.8 hPa NE 2.3 mph /  3.7 km/h 2.3 mph /  3.7 km/h 74 % 0 in /  0.0 mm
23:41 71.1 °F /  21.7 °C 62.4 °F /  16.9 °C 30 in /  1015.8 hPa NNE 2.3 mph /  3.7 km/h 2.3 mph /  3.7 km/h 74 % 0 in /  0.0 mm
23:45 66.2 °F /  19.0 °C 59.2 °F /  15.1 °C 30 in /  1015.8 hPa NE 1 mph /  1.6 km/h 2 mph /  3.2 km/h 78 % 0 in /  0.0 mm
23:46 71.1 °F /  21.7 °C 62.4 °F /  16.9 °C 30 in /  1015.8 hPa NE 1.6 mph /  2.6 km/h 1.6 mph /  2.6 km/h 74 % 0 in /  0.0 mm
23:51 70.9 °F /  21.6 °C 62.6 °F /  17.0 °C 30 in /  1015.8 hPa East 2.3 mph /  3.7 km/h 2.3 mph /  3.7 km/h 75 % 0 in /  0.0 mm
23:55 65.8 °F /  18.8 °C 58.8 °F /  14.9 °C 30 in /  1015.8 hPa NE 3 mph /  4.8 km/h 4 mph /  6.4 km/h 78 % 0 in /  0.0 mm
23:56 70.7 °F /  21.5 °C 62.4 °F /  16.9 °C 30 in /  1015.8 hPa Calm     75 % 0 in /  0.0 mm
Meteo Sesrovires
Elogis d' Weather Underground - 3.75 mb

Guio original per  Jim McMurry - jmcmurry@mwt.net Adaptat per a la plantilla per  Wim van der Kuil - Leuven-Template.eu

Trobareu la nostra informacio del temps tambe a:

Weather Underground

AWEKAS